Relevés horaires Schaffen (Belgique)


Relevés horaires à Schaffen - Mardi 31 Mars 2020
Heure UTC1 Température [°C] Vent [km/h] Hum. [%] Pres.4 [hPa] Visi. [Km] Nébu. [octa] Préc.5 [mm] Cond.
2m. Res. Ros. Dir.2 Vit. Moy. Raf.3
23:00 1.8 1.8 -6.2 N 3.7 -- 5.6 55 1027.5(-0.8/3h) 20 -- -- --
22:00 3.7 3.7 -6.5 NNO 1.9 -- 3.7 47 1027.7(-0.8/3h) 20 -- -- --
21:00 4.6 4.6 -6.3 NNO 1.9 -- 7.4 45 1028(-0.6/3h) 20 -- -- --
20:00 4.6 4.6 -6.6 NNO 1.9 -- 5.6 44 1028.4(-0.4/3h) 20 -- -- --
19:00 6.0 6.0 -6.7 NE 3.7 -- 7.4 40 1028.5(-0.2/3h) 20 -- -- --
18:00 6.9 6.9 -6.0 NNO 1.9 -- 14.8 39 1028.5(-0.5/3h) 20 -- -- --
17:00 8.6 8 -6.5 NE 5.6 -- 13.0 34 1028.7(-0.7/3h) 20 -- -- --
16:00 8.9 7.9 -7.6 ENE 7.4 -- 13.0 30 1028.7(-1.3/3h) 20 -- -- --
15:00 9.3 8.3 -6.9 ENE 7.4 -- 14.8 31 1029(-1.3/3h) 20 -- -- --
14:00 9.4 8.4 -5.2 NE 7.4 -- 13.0 35 1029.4(-1.4/3h) 20 -- -- --
13:00 8.5 7.4 -6.4 ENE 7.4 -- 13.0 34 1030.2(-1.3/3h) 20 -- -- --
13:00 8.5 7.4 -6.4 ENE 7.4 -- 13.0 34 1030.2(-1.3/3h) 20 -- -- --
13:00 8.5 7.4 -6.4 ENE 7.4 -- 13.0 34 1030.2(-1.3/3h) 20 -- -- --
12:00 8.5 7.9 -3.1 ENE 5.6 -- 14.8 44 1030.2(-1.2/3h) 18 -- -- --
12:00 8.5 7.9 -3.1 ENE 5.6 -- 14.8 44 1030.2(-1.2/3h) 18 -- -- --
11:00 6.0 4.5 -1.5 E 7.4 -- 13.0 59 1030.9(-0.5/3h) 13 -- -- --
10:00 5.2 3.5 0.8 ENE 7.4 -- 11.1 73 1031.5(0.4/3h) 13 -- -- --
09:00 4.1 2.8 1.0 NE 5.6 -- 13.0 80 1031.7(1.2/3h) 15 -- -- --
09:00 4.1 2.8 1.0 NE 5.6 -- 13.0 80 1031.7(1.2/3h) 15 -- -- --
08:00 2.3 0.8 0.2 ENE 5.6 -- 13.0 86 1031.5(1.6/3h) 13 -- -- --
07:00 1.3 -0.4 0.4 NE 5.6 -- 13.0 94 1031.2(1.8/3h) 7 -- -- --
06:00 1.6 -0.7 0.6 NE 7.4 -- 13.0 93 1030.5(1.4/3h) 5 -- trace/12h
--
05:00 1.6 -0 0.6 NE 5.6 -- 11.1 93 1030(1.0/3h) 11 -- -- --
04:00 0.8 0.8 -- NE 3.7 -- 7.4 -- 1029.2(0.3/3h) 11 -- -- --

1 Coordinated Universal Time. Actuellement il est 09:00 locale et 08:00 UTC.

2 Le vent souffle depuis la direction indiquée vers la direction oposée.

3 Les rafales max. sont disponible 40 min après l'heure du relevé.

4 Pour les stations d'altitude (plus de 600m) le géopotentiel du niveau le plus proche de la pression obligatoire est indiqué.

5 Les stations disposant d'un diffuseur peuvent indiquer "trace". Cela signifie que des précipitations ont touchés le sol mais que la quantité est inférieure à 0.1 mm.

Récapitulatif de la journée
Température [°C] Vent [km/h] Ensoleillement4 [h] Precipitations totale5 [mm] Pression [Hpa]
Min1 Max.2 Moy.3 Max. Min Max.
0.6 9.6 0 14.8 0 h 0 min 0 1027.5 1031.7

1 Température minimale relevée entre 18:00 UTC la veille et 18:00 UTC le jour donné.

2 Température maximale relevée entre 06:00 UTC le jour donné et 06:00 UTC le lendemain.

3 Vent moyen de la journée basé sur les relevés horaires.

4 Ensoleillement en heures relevé entre 06:00 UTC la veille et 06:00 UTC le jour donné.

5 Précipitations totales tombées entre 06:00 UTC la jour donné et 06:00 UTC le lendemain.

Graphiques horaires